Neahkahnie, Oregon
Current Conditions -  °F | °C
As of 12:55 AM on Wednesday 26 Nov 2014 (Local Time) from KTMK Reporting Station
Overcast Overcast  
Wind Chill: 55°   Ceiling: 1600
Heat Index: 55°   Visibility: 10mi
Dew Point: 55°   Wind: 0mph
Humidity: 100%   Direction: NA
Pressure: 30.3"   Gusts: NA
Location:  45.7222°N, 123.684°W
Report Text: KTMK 260855Z AUTO 00000KT 10SM SCT010 BKN016 OVC040 13/13 A3030 RMK AO2
Loading
Personal Weather Stations






























Interactive Weather Map New forecast layout! Learn more

10-Day Weather Forecast

Advertisements
Track Severe Weather on mobile